Altmar, NY

2:31 PM EDT on August 29, 2016 (GMT -0400)
Orwell | | Change Station

Elev 709 ft 43.58 °N, 76.01 °W | Updated 2 seconds ago

Clear
Clear
73.9 °F
Feels Like 77 °F
N
9.8
Wind Variable Wind from NNW
Gusts 12.3 mph

Today
High -- | Low -- °F
--% Chance of Precip.
Yesterday
High -- | Low -- °F
Precip. -- in
Pressure 30.23 in
Visibility 10.0 miles
Clouds Clear
Heat Index 77 °F
Dew Point 59 °F
Humidity 60%
Rainfall 0.00 in
Snow Depth Not available.
6:25 AM 7:43 PM
Waning Crescent, 7% visible
METAR KFZY 291754Z AUTO 29005KT 10SM CLR 24/15 A3023 RMK AO2 SLP236 T02440150 10250 20200 53001
Pressure 30.23 in
Visibility 10.0 miles
Clouds Clear
Heat Index 77 °F
Dew Point 59 °F
Humidity 60%
Rainfall 0.00 in
Snow Depth Not available.
6:25 AM 7:43 PM
Waning Crescent, 7% visible
METAR KFZY 291754Z AUTO 29005KT 10SM CLR 24/15 A3023 RMK AO2 SLP236 T02440150 10250 20200 53001

10-Day Weather Forecast

Almanac

Astronomy

Aug. 29, 2016 Rise Set
Actual Time
Civil Twilight
Nautical Twilight
Astronomical Twilight
Moon
Length of Visible Light
Length of Day
Tomorrow will be .
, % of the Moon is Illuminated

Today's Extremes

State Highs State Lows

Community

WunderPhotos

Upload Photos

1,935,685 photos uploaded!

WunderBlog® & News

Nearby

Air Quality

  Air Quality AQ Index Pollutant
Not available.

Snow Depth

Station Depth Elevation

Earthquake Activity

City Distance Mag. Time & Date
Minimum magnitude displayed is 2.5.

Coastal Water Temperatures

Place Temperature

Stations

Nearby Weather Stations

Station Location Temp. Windchill Dew Point Humidity Wind Precip. Elev Updated Type
                   

Watches & Warnings

There are currently no watches in effect.